createdAt,value
2019-01-09T00:01:40.976Z,4.03
2019-01-09T00:04:45.169Z,3.97
2019-01-09T00:07:49.717Z,4.00
2019-01-09T00:10:53.820Z,3.93
2019-01-09T00:13:59.437Z,4.03
2019-01-09T00:17:06.589Z,3.96
2019-01-09T00:20:10.932Z,3.92
2019-01-09T00:23:15.506Z,3.83
2019-01-09T00:26:19.810Z,3.84
2019-01-09T00:29:23.925Z,3.83
2019-01-09T00:32:27.965Z,3.88
2019-01-09T00:35:37.142Z,3.94
2019-01-09T00:38:40.586Z,3.77
2019-01-09T00:41:46.771Z,3.63
2019-01-09T00:45:03.778Z,3.72
2019-01-09T00:48:09.817Z,3.62
2019-01-09T00:51:13.932Z,3.74
2019-01-09T00:54:18.565Z,3.64
2019-01-09T00:57:22.849Z,3.65
2019-01-09T01:00:30.497Z,3.73
2019-01-09T01:04:31.029Z,3.67
2019-01-09T01:07:55.470Z,3.65
2019-01-09T01:11:30.595Z,3.69
2019-01-09T01:15:18.784Z,3.55
2019-01-09T01:18:48.919Z,3.52
2019-01-09T01:22:04.258Z,3.73
2019-01-09T01:25:50.542Z,3.61
2019-01-09T01:29:36.461Z,3.57
2019-01-09T01:33:25.319Z,3.68
2019-01-09T01:37:08.012Z,3.59
2019-01-09T01:41:02.138Z,3.50
2019-01-09T01:44:30.777Z,3.65
2019-01-09T01:48:10.565Z,3.66
2019-01-09T01:51:59.263Z,3.71
2019-01-09T01:55:26.684Z,3.54
2019-01-09T01:58:56.420Z,3.58
2019-01-09T02:02:15.638Z,3.74
2019-01-09T02:05:47.719Z,3.65
2019-01-09T02:09:13.434Z,3.77
2019-01-09T02:12:31.041Z,3.63
2019-01-09T02:16:10.868Z,3.60
2019-01-09T02:19:23.355Z,3.56
2019-01-09T02:23:00.927Z,3.50
2019-01-09T02:26:42.284Z,3.55
2019-01-09T02:30:33.970Z,3.50
2019-01-09T02:33:38.016Z,3.50
2019-01-09T02:36:45.288Z,3.52
2019-01-09T02:39:51.387Z,3.55
2019-01-09T02:42:55.382Z,3.53
2019-01-09T02:46:01.395Z,3.55
2019-01-09T02:49:05.640Z,3.55
2019-01-09T02:52:11.387Z,3.58
2019-01-09T02:55:15.712Z,3.55
2019-01-09T02:58:19.946Z,3.55
2019-01-09T03:01:24.356Z,3.66
2019-01-09T03:04:28.567Z,3.48
2019-01-09T03:07:32.795Z,3.54
2019-01-09T03:10:37.478Z,3.47
2019-01-09T03:13:44.499Z,3.39
2019-01-09T03:16:50.670Z,3.41
2019-01-09T03:19:54.679Z,3.42
2019-01-09T03:22:58.984Z,3.38
2019-01-09T03:26:06.154Z,3.35
2019-01-09T03:29:10.615Z,3.37
2019-01-09T03:32:14.838Z,3.25
2019-01-09T03:35:19.043Z,3.35
2019-01-09T03:38:23.262Z,3.36
2019-01-09T03:41:27.701Z,3.24
2019-01-09T03:44:32.666Z,3.42
2019-01-09T03:47:36.866Z,3.24
2019-01-09T03:50:41.043Z,3.22
2019-01-09T03:53:45.213Z,3.27
2019-01-09T03:56:49.806Z,3.28
2019-01-09T03:59:54.063Z,3.14
2019-01-09T04:02:58.377Z,3.34
2019-01-09T04:06:02.775Z,3.29
2019-01-09T04:09:07.311Z,3.19
2019-01-09T04:12:11.617Z,3.25
2019-01-09T04:15:17.245Z,3.32
2019-01-09T04:18:21.475Z,3.32
2019-01-09T04:21:25.808Z,3.12
2019-01-09T04:24:30.030Z,3.15
2019-01-09T04:27:34.547Z,3.09
2019-01-09T04:30:38.760Z,3.11
2019-01-09T04:33:45.232Z,3.14
2019-01-09T04:36:52.186Z,3.08
2019-01-09T04:39:56.646Z,3.01
2019-01-09T04:43:01.108Z,2.88
2019-01-09T04:46:05.631Z,3.01
2019-01-09T04:49:12.383Z,3.05
2019-01-09T04:52:16.507Z,3.15
2019-01-09T04:55:20.851Z,3.12
2019-01-09T04:58:24.944Z,3.24
2019-01-09T05:01:29.388Z,3.10
2019-01-09T05:04:33.630Z,3.26
2019-01-09T05:07:37.968Z,3.33
2019-01-09T05:10:44.829Z,3.24
2019-01-09T05:13:49.198Z,3.15
2019-01-09T05:16:53.418Z,3.06
2019-01-09T05:19:57.779Z,3.19
2019-01-09T05:23:02.298Z,3.13
2019-01-09T05:26:06.434Z,3.10
2019-01-09T05:29:10.589Z,2.97
2019-01-09T05:32:14.926Z,3.03
2019-01-09T05:35:19.124Z,3.05
2019-01-09T08:08:28.488Z,2.75
2019-01-09T08:11:32.424Z,2.82
2019-01-09T08:14:36.295Z,3.03
2019-01-09T08:17:40.148Z,3.24
2019-01-09T08:20:44.148Z,3.30
2019-01-09T08:23:53.249Z,3.31
2019-01-09T08:26:57.274Z,3.46
2019-01-09T08:30:01.148Z,3.34
2019-01-09T08:33:05.152Z,3.47
2019-01-09T08:36:09.142Z,3.55
2019-01-09T08:39:13.005Z,3.64
2019-01-09T08:42:20.367Z,3.61
2019-01-09T08:45:24.410Z,3.59
2019-01-09T08:48:28.293Z,3.65
2019-01-09T08:51:32.228Z,3.49
2019-01-09T08:54:36.078Z,3.58
2019-01-09T08:57:39.978Z,3.53
2019-01-09T09:00:43.832Z,3.50
2019-01-09T09:03:47.845Z,3.68
2019-01-09T09:06:51.967Z,3.62
2019-01-09T09:09:55.924Z,3.54
2019-01-09T09:12:59.901Z,3.57
2019-01-09T09:16:04.041Z,3.73
2019-01-09T09:19:08.002Z,3.78
2019-01-09T09:22:12.034Z,3.61
2019-01-09T09:25:17.063Z,3.80
2019-01-09T09:28:22.719Z,3.71
2019-01-09T09:31:26.795Z,3.56
2019-01-09T09:34:30.722Z,3.56
2019-01-09T09:37:35.367Z,3.52
2019-01-09T09:40:39.400Z,3.67
2019-01-09T09:43:43.805Z,3.60
2019-01-09T09:46:48.402Z,3.65
2019-01-09T09:49:52.283Z,3.57
2019-01-09T09:52:58.525Z,3.73
2019-01-09T09:56:02.477Z,3.74
2019-01-09T09:59:06.424Z,3.71
2019-01-09T10:02:10.472Z,3.75
2019-01-09T10:05:17.826Z,3.79
2019-01-09T10:08:29.363Z,3.94
2019-01-09T10:11:27.403Z,3.90
2019-01-09T10:14:31.277Z,3.83
2019-01-09T10:17:35.161Z,3.83
2019-01-09T10:20:39.119Z,4.03
2019-01-09T10:23:43.079Z,3.89
2019-01-09T10:26:49.471Z,3.85
2019-01-09T10:29:53.427Z,4.21
2019-01-09T10:32:57.302Z,3.88
2019-01-09T10:36:01.378Z,4.01
2019-01-09T10:39:09.532Z,4.09
2019-01-09T10:42:13.565Z,4.03
2019-01-09T10:45:20.021Z,3.97
2019-01-09T10:48:24.148Z,4.00
2019-01-09T10:51:28.201Z,4.04
2019-01-09T10:54:32.092Z,4.09
2019-01-09T10:57:35.959Z,4.30
2019-01-09T11:00:39.814Z,4.17
2019-01-09T11:03:43.809Z,4.12
2019-01-09T11:06:47.760Z,4.02
2019-01-09T11:09:51.662Z,4.07
2019-01-09T11:12:55.606Z,4.11
2019-01-09T11:15:59.460Z,4.13
2019-01-09T11:19:03.462Z,4.13
2019-01-09T11:22:07.522Z,4.12
2019-01-09T11:25:15.298Z,4.03
2019-01-09T11:28:19.286Z,4.24
2019-01-09T11:31:23.250Z,4.41
2019-01-09T11:34:27.176Z,4.47
2019-01-09T11:37:31.039Z,4.37
2019-01-09T11:40:34.984Z,4.35
2019-01-09T11:43:38.907Z,4.47
2019-01-09T11:46:46.160Z,4.42
2019-01-09T11:49:50.025Z,4.28
2019-01-09T11:52:53.991Z,4.29
2019-01-09T11:55:57.840Z,4.31
2019-01-09T11:59:01.725Z,4.29
2019-01-09T12:02:11.261Z,4.42
2019-01-09T12:05:15.924Z,4.46
2019-01-09T12:08:19.929Z,4.55
2019-01-09T12:11:23.899Z,4.64
2019-01-09T12:14:27.758Z,4.60
2019-01-09T12:17:31.697Z,4.62
2019-01-09T12:20:35.571Z,4.58
2019-01-09T12:23:39.425Z,4.40
2019-01-09T12:26:43.294Z,4.40
2019-01-09T12:29:47.234Z,4.42
2019-01-09T12:32:51.185Z,4.54
2019-01-09T12:35:55.133Z,4.46
2019-01-09T12:39:03.522Z,4.30
2019-01-09T12:42:07.455Z,4.43
2019-01-09T12:45:12.842Z,4.53
2019-01-09T12:48:16.723Z,4.66
2019-01-09T12:51:21.919Z,4.55
2019-01-09T12:54:25.956Z,4.48
2019-01-09T12:57:29.878Z,4.48
2019-01-09T13:00:34.888Z,4.59
2019-01-09T13:03:38.858Z,4.40
2019-01-09T13:06:42.874Z,4.41
2019-01-09T13:09:46.829Z,4.31
2019-01-09T13:12:52.798Z,4.30
2019-01-09T13:15:56.553Z,4.36
2019-01-09T13:19:00.478Z,4.21
2019-01-09T13:22:04.495Z,4.52
2019-01-09T13:25:09.741Z,4.49
2019-01-09T13:28:13.680Z,4.41
2019-01-09T13:31:17.627Z,4.23
2019-01-09T13:34:21.595Z,4.21
2019-01-09T13:37:25.711Z,4.30
2019-01-09T13:40:29.712Z,4.21
2019-01-09T13:43:33.674Z,4.10
2019-01-09T13:46:37.714Z,4.36
2019-01-09T13:49:41.740Z,4.14
2019-01-09T13:52:45.771Z,4.18
2019-01-09T13:55:49.726Z,4.39
2019-01-09T13:58:53.566Z,4.34
2019-01-09T14:01:57.561Z,4.37
2019-01-09T14:05:03.700Z,4.28
2019-01-09T14:08:07.462Z,4.33
2019-01-09T14:11:11.510Z,4.15
2019-01-09T14:14:15.553Z,4.12
2019-01-09T14:17:19.413Z,4.27
2019-01-09T14:20:23.373Z,4.08
2019-01-09T14:23:27.250Z,4.04
2019-01-09T14:26:31.237Z,4.13
2019-01-09T14:29:35.167Z,4.25
2019-01-09T14:32:39.114Z,4.02
2019-01-09T14:35:43.168Z,4.13
2019-01-09T14:38:50.543Z,3.90
2019-01-09T14:41:54.496Z,4.06
2019-01-09T14:44:58.405Z,3.97
2019-01-09T14:48:02.333Z,3.99
2019-01-09T14:51:06.498Z,3.87
2019-01-09T14:54:10.348Z,3.80
2019-01-09T14:57:14.359Z,3.80
2019-01-09T15:00:20.523Z,3.72
2019-01-09T15:03:24.419Z,3.84
2019-01-09T15:06:28.378Z,3.77
2019-01-09T15:09:32.865Z,3.76
2019-01-09T15:12:36.807Z,3.89
2019-01-09T15:15:40.816Z,3.93
2019-01-09T15:18:44.759Z,3.96
2019-01-09T15:21:48.701Z,3.85
2019-01-09T15:24:53.145Z,3.91
2019-01-09T15:27:57.087Z,3.92
2019-01-09T15:31:02.849Z,3.88
2019-01-09T15:34:06.876Z,4.09
2019-01-09T15:37:10.834Z,4.05
2019-01-09T15:40:21.052Z,3.95
2019-01-09T15:43:26.712Z,4.02
2019-01-09T15:46:30.598Z,4.01
2019-01-09T15:49:34.565Z,4.03
2019-01-09T15:52:38.486Z,3.99
2019-01-09T15:55:42.540Z,3.94
2019-01-09T15:58:46.465Z,4.08
2019-01-09T16:01:50.390Z,4.10
2019-01-09T16:04:56.058Z,3.95
2019-01-09T16:07:59.938Z,4.15
2019-01-09T16:11:04.550Z,3.99
2019-01-09T16:14:08.510Z,4.04
2019-01-09T16:17:12.439Z,4.17
2019-01-09T16:20:17.571Z,4.08
2019-01-09T16:23:21.469Z,4.16
2019-01-09T16:26:25.329Z,4.14
2019-01-09T16:29:29.188Z,4.13
2019-01-09T16:32:33.174Z,4.15
2019-01-09T16:35:37.242Z,4.04
2019-01-09T16:38:41.213Z,4.12
2019-01-09T16:41:45.076Z,4.06
2019-01-09T16:44:48.934Z,4.04
2019-01-09T16:47:52.946Z,4.19
2019-01-09T16:50:56.977Z,3.99
2019-01-09T16:54:00.826Z,4.12
2019-01-09T16:57:07.517Z,4.10
2019-01-09T17:00:18.390Z,4.11
2019-01-09T17:03:22.415Z,4.10
2019-01-09T17:06:26.360Z,4.01
2019-01-09T17:09:30.295Z,4.05
2019-01-09T17:12:34.204Z,4.19
2019-01-09T17:15:40.082Z,4.10
2019-01-09T17:18:43.958Z,4.01
2019-01-09T17:21:47.898Z,4.13
2019-01-09T17:24:51.852Z,4.14
2019-01-09T17:27:55.900Z,4.14
2019-01-09T17:31:00.258Z,4.06
2019-01-09T17:34:04.272Z,3.89
2019-01-09T17:37:08.240Z,3.94
2019-01-09T17:40:14.657Z,4.00
2019-01-09T17:43:18.608Z,4.08
2019-01-09T17:46:22.540Z,3.94
2019-01-09T17:49:26.559Z,4.07
2019-01-09T17:52:30.398Z,4.03
2019-01-09T17:55:34.426Z,3.97
2019-01-09T17:58:38.445Z,4.00
2019-01-09T18:01:42.308Z,3.99
2019-01-09T18:04:46.411Z,4.00
2019-01-09T18:07:52.166Z,3.99
2019-01-09T18:10:56.120Z,3.85
2019-01-09T18:13:59.992Z,3.90
2019-01-09T18:17:04.298Z,3.84
2019-01-09T18:20:12.397Z,3.64
2019-01-09T18:23:16.265Z,3.71
2019-01-09T18:26:20.223Z,3.54
2019-01-09T18:29:24.334Z,3.66
2019-01-09T18:32:37.410Z,3.54
2019-01-09T18:36:25.140Z,3.74
2019-01-09T18:39:58.585Z,3.68
2019-01-09T18:43:27.369Z,3.66
2019-01-09T18:47:17.717Z,3.52
2019-01-09T18:51:02.791Z,3.50
2019-01-09T18:54:07.115Z,3.60
2019-01-09T18:57:11.098Z,3.58
2019-01-09T19:00:21.654Z,3.54
2019-01-09T19:03:28.652Z,3.66
2019-01-09T19:06:35.389Z,3.62
2019-01-09T19:09:38.830Z,3.61
2019-01-09T19:12:50.848Z,3.71
2019-01-09T19:15:54.934Z,3.70
2019-01-09T19:19:28.481Z,3.68
2019-01-09T19:22:32.455Z,3.81
2019-01-09T19:25:36.394Z,3.69
2019-01-09T19:28:40.432Z,3.68
2019-01-09T19:31:47.714Z,3.71
2019-01-09T19:35:06.132Z,3.75
2019-01-09T19:38:10.145Z,3.76
2019-01-09T19:41:17.189Z,3.70
2019-01-09T19:44:19.705Z,3.76
2019-01-09T19:47:28.822Z,3.71
2019-01-09T19:50:42.311Z,3.79
2019-01-09T19:53:41.668Z,3.60
2019-01-09T19:56:45.717Z,3.57
2019-01-09T19:59:53.144Z,3.52
2019-01-09T20:02:57.178Z,3.63
2019-01-09T20:06:01.177Z,3.65
2019-01-09T20:09:08.499Z,3.58
2019-01-09T20:12:12.620Z,3.37
2019-01-09T20:15:17.838Z,3.38
2019-01-09T20:18:25.127Z,3.24
2019-01-09T20:21:29.151Z,3.34
2019-01-09T20:24:33.095Z,3.32
2019-01-09T20:27:37.188Z,3.50
2019-01-09T20:30:41.414Z,3.38
2019-01-09T20:33:45.634Z,3.47
2019-01-09T20:36:49.629Z,3.63
2019-01-09T20:39:53.731Z,3.53
2019-01-09T20:42:57.734Z,3.41
2019-01-09T20:46:01.641Z,3.44
2019-01-09T20:49:05.698Z,3.49
2019-01-09T20:52:10.420Z,3.45
2019-01-09T20:55:15.197Z,3.45
2019-01-09T20:58:19.161Z,3.42
2019-01-09T21:01:23.318Z,3.33
2019-01-09T21:04:27.283Z,3.11
2019-01-09T21:07:31.306Z,3.10
2019-01-09T21:10:38.017Z,3.30
2019-01-09T21:13:43.523Z,3.11
2019-01-09T21:16:47.554Z,3.10
2019-01-09T21:19:51.579Z,3.10
2019-01-09T21:22:55.586Z,3.11
2019-01-09T21:25:59.753Z,3.04
2019-01-09T21:29:03.999Z,3.03
2019-01-09T21:32:08.293Z,3.18
2019-01-09T21:35:12.929Z,3.20
2019-01-09T21:38:16.949Z,3.24
2019-01-09T21:41:20.891Z,3.14
2019-01-09T21:44:24.805Z,3.12
2019-01-09T21:47:28.900Z,3.20
2019-01-09T21:50:33.211Z,3.11
2019-01-09T21:53:57.876Z,3.17
2019-01-09T21:57:02.155Z,3.09
2019-01-09T22:00:08.378Z,2.94
2019-01-09T22:03:12.619Z,3.02
2019-01-09T22:06:16.756Z,2.94
2019-01-09T22:09:20.798Z,3.01
2019-01-09T22:12:24.843Z,3.22
2019-01-09T22:15:31.135Z,3.26
2019-01-09T22:18:35.668Z,3.35
2019-01-09T22:21:40.284Z,3.09
2019-01-09T22:24:45.098Z,2.94
2019-01-09T22:27:49.293Z,2.95
2019-01-09T22:30:53.222Z,2.99
2019-01-09T22:33:57.283Z,3.01
2019-01-09T22:37:01.869Z,3.06
2019-01-09T22:40:06.815Z,2.97
2019-01-09T22:43:11.234Z,2.97
2019-01-09T22:46:15.306Z,3.15
2019-01-09T22:49:19.301Z,3.06
2019-01-09T22:52:23.310Z,2.99
2019-01-09T22:55:27.348Z,2.99
2019-01-09T22:58:31.579Z,3.01
2019-01-09T23:01:35.577Z,2.90
2019-01-09T23:04:39.536Z,3.12
2019-01-09T23:07:43.462Z,2.87
2019-01-09T23:10:54.260Z,2.81
2019-01-09T23:13:53.813Z,2.57
2019-01-09T23:16:57.745Z,2.35
2019-01-09T23:20:01.631Z,2.23
2019-01-09T23:23:05.819Z,2.13
2019-01-09T23:26:09.825Z,2.05
2019-01-09T23:29:13.754Z,1.99
2019-01-09T23:32:17.856Z,2.12
2019-01-09T23:35:21.853Z,2.05
2019-01-09T23:38:25.696Z,2.13
2019-01-09T23:41:32.248Z,2.15
2019-01-09T23:44:35.913Z,2.12
2019-01-09T23:47:40.545Z,2.25
2019-01-09T23:50:44.558Z,2.05
2019-01-09T23:53:48.497Z,2.07
2019-01-09T23:56:52.346Z,2.22
2019-01-09T23:59:56.273Z,2.23
